Terminal Aerodrome Forecast
Issued by NWS Pittsburgh, PA

Current Version | Previous Version | Text Only | Print | Product List | Glossary Off
Versions: 1 2 3 4 5 6 7 8 9 10 11 12 13 14 15 16 17 18 19 20 21 22 23 24

000
FTUS41 KPBZ 191700
TAFPIT
TAF
KPIT 191739Z 1918/2024 02010G16KT P6SM BKN250
     FM192300 04007KT P6SM BKN250
     FM200600 09004KT P6SM SCT250=

USA.gov is the U.S. government's official web portal to all federal, state and local government web resources and services.